createdAt,value
2022-11-18T00:00:09.883Z,1.22
2022-11-18T00:02:40.550Z,1.19
2022-11-18T00:05:11.280Z,1.21
2022-11-18T00:07:42.222Z,1.16
2022-11-18T00:10:13.133Z,1.13
2022-11-18T00:13:01.488Z,1.12
2022-11-18T00:15:32.056Z,1.07
2022-11-18T00:18:02.641Z,1.09
2022-11-18T00:20:34.118Z,1.10
2022-11-18T00:23:04.716Z,1.11
2022-11-18T00:25:36.233Z,1.06
2022-11-18T00:28:07.230Z,1.01
2022-11-18T00:30:37.835Z,1.00
2022-11-18T00:33:08.420Z,0.99
2022-11-18T00:35:39.024Z,1.03
2022-11-18T00:38:09.605Z,1.07
2022-11-18T00:40:40.219Z,1.09
2022-11-18T00:43:10.786Z,1.08
2022-11-18T00:45:41.357Z,1.07
2022-11-18T00:48:11.934Z,0.99
2022-11-18T00:50:42.535Z,0.82
2022-11-18T00:53:13.124Z,0.73
2022-11-18T00:55:44.002Z,0.77
2022-11-18T00:58:15.283Z,0.79
2022-11-18T01:00:48.645Z,0.79
2022-11-18T01:03:20.396Z,0.77
2022-11-18T01:05:51.039Z,0.77
2022-11-18T01:08:22.138Z,0.77
2022-11-18T01:10:53.674Z,0.80
2022-11-18T01:13:26.538Z,0.83
2022-11-18T01:15:58.899Z,0.92
2022-11-18T01:18:32.080Z,0.92
2022-11-18T01:21:06.433Z,0.91
2022-11-18T01:23:37.038Z,0.84
2022-11-18T01:26:09.654Z,0.76
2022-11-18T01:28:40.574Z,0.72
2022-11-18T01:31:13.595Z,0.70
2022-11-18T01:33:44.628Z,0.72
2022-11-18T01:36:23.612Z,0.69
2022-11-18T01:38:55.552Z,0.73
2022-11-18T01:41:27.820Z,0.76
2022-11-18T01:44:00.489Z,0.77
2022-11-18T01:46:32.613Z,0.83
2022-11-18T01:49:08.080Z,0.83
2022-11-18T01:51:44.690Z,0.76
2022-11-18T01:54:20.317Z,0.70
2022-11-18T01:56:55.085Z,0.68
2022-11-18T01:59:32.034Z,0.62
2022-11-18T02:02:06.517Z,0.62
2022-11-18T02:04:37.478Z,0.60
2022-11-18T02:07:09.572Z,0.61
2022-11-18T02:09:41.210Z,0.69
2022-11-18T02:12:12.944Z,0.81
2022-11-18T02:14:46.856Z,0.87
2022-11-18T02:17:28.574Z,0.85
2022-11-18T02:20:27.619Z,0.81
2022-11-18T02:23:31.780Z,0.89
2022-11-18T02:26:17.485Z,0.93
2022-11-18T02:29:02.771Z,0.95
2022-11-18T02:31:47.909Z,0.95
2022-11-18T02:34:26.487Z,0.94
2022-11-18T02:37:01.531Z,0.98
2022-11-18T02:39:36.191Z,1.00
2022-11-18T02:42:10.601Z,1.04
2022-11-18T02:44:47.988Z,0.99
2022-11-18T02:47:20.046Z,0.92
2022-11-18T02:49:54.081Z,0.94
2022-11-18T02:52:27.459Z,0.99
2022-11-18T02:54:59.630Z,1.03
2022-11-18T02:57:32.387Z,1.02
2022-11-18T03:00:03.030Z,1.03
2022-11-18T03:02:43.577Z,0.99
2022-11-18T03:05:22.990Z,1.00
2022-11-18T03:07:59.009Z,0.94
2022-11-18T03:10:35.894Z,0.89
2022-11-18T03:13:12.727Z,0.85
2022-11-18T03:15:52.069Z,0.81
2022-11-18T03:18:28.434Z,0.84
2022-11-18T03:21:06.046Z,0.89
2022-11-18T03:23:41.787Z,0.91
2022-11-18T03:26:17.703Z,0.86
2022-11-18T03:28:54.231Z,0.79
2022-11-18T03:31:29.091Z,0.75
2022-11-18T03:34:03.076Z,0.75
2022-11-18T03:36:39.726Z,0.77
2022-11-18T03:39:13.971Z,0.80
2022-11-18T03:41:48.668Z,0.85
2022-11-18T03:44:24.843Z,0.84
2022-11-18T03:47:00.483Z,0.84
2022-11-18T03:49:34.846Z,0.81
2022-11-18T03:52:16.771Z,0.84
2022-11-18T03:54:52.493Z,0.86
2022-11-18T03:57:32.142Z,0.82
2022-11-18T04:00:07.621Z,0.77
2022-11-18T04:02:39.141Z,0.76
2022-11-18T04:05:14.341Z,0.75
2022-11-18T04:07:55.145Z,0.74
2022-11-18T04:10:31.416Z,0.76
2022-11-18T04:13:07.147Z,0.74
2022-11-18T04:15:39.981Z,0.68
2022-11-18T04:18:11.238Z,0.60
2022-11-18T04:20:41.956Z,0.64
2022-11-18T04:23:12.537Z,0.64
2022-11-18T04:25:43.212Z,0.56
2022-11-18T04:28:14.543Z,0.49
2022-11-18T04:30:45.163Z,0.47
2022-11-18T04:33:15.742Z,0.47
2022-11-18T04:35:47.468Z,0.46
2022-11-18T04:38:21.878Z,0.43
2022-11-18T04:40:52.843Z,0.48
2022-11-18T04:43:23.443Z,0.46
2022-11-18T04:45:54.063Z,0.40
2022-11-18T04:48:24.695Z,0.40
2022-11-18T04:50:57.630Z,0.41
2022-11-18T04:53:28.237Z,0.38
2022-11-18T04:56:04.950Z,0.38
2022-11-18T04:58:35.638Z,0.34
2022-11-18T05:01:06.248Z,0.31
2022-11-18T05:03:36.886Z,0.33
2022-11-18T05:06:07.956Z,0.38
2022-11-18T05:08:38.587Z,0.34
2022-11-18T05:11:24.165Z,0.36
2022-11-18T05:13:55.238Z,0.36
2022-11-18T05:16:25.840Z,0.33
2022-11-18T05:18:56.470Z,0.23
2022-11-18T05:21:27.076Z,0.16
2022-11-18T05:23:57.737Z,0.18
2022-11-18T05:26:28.662Z,0.19
2022-11-18T05:28:59.277Z,0.21
2022-11-18T05:31:29.891Z,0.25
2022-11-18T05:34:00.870Z,0.20
2022-11-18T05:36:31.677Z,0.25
2022-11-18T05:39:02.685Z,0.25
2022-11-18T05:41:50.937Z,0.24
2022-11-18T05:44:21.588Z,0.28
2022-11-18T05:46:52.224Z,0.30
2022-11-18T05:49:22.864Z,0.30
2022-11-18T05:51:53.487Z,0.31
2022-11-18T05:54:24.547Z,0.33
2022-11-18T05:56:55.320Z,0.35
2022-11-18T05:59:25.921Z,0.38
2022-11-18T06:02:01.735Z,0.40
2022-11-18T06:04:38.961Z,0.40
2022-11-18T06:07:15.922Z,0.30
2022-11-18T06:09:50.217Z,0.25
2022-11-18T06:12:25.034Z,0.22
2022-11-18T06:14:58.813Z,0.24
2022-11-18T06:17:33.810Z,0.25
2022-11-18T06:20:05.701Z,0.18
2022-11-18T06:22:42.116Z,0.18
2022-11-18T06:25:16.074Z,0.21
2022-11-18T06:27:47.628Z,0.25
2022-11-18T06:30:18.653Z,0.22
2022-11-18T06:32:49.293Z,0.24
2022-11-18T06:35:20.015Z,0.22
2022-11-18T06:37:50.723Z,0.26
2022-11-18T06:40:21.494Z,0.35
2022-11-18T06:43:09.358Z,0.41
2022-11-18T06:46:03.437Z,0.29
2022-11-18T06:48:36.810Z,0.28
2022-11-18T06:51:09.525Z,0.30
2022-11-18T06:53:40.334Z,0.34
2022-11-18T06:56:13.476Z,0.35
2022-11-18T06:58:44.072Z,0.36
2022-11-18T07:01:17.308Z,0.38
2022-11-18T07:03:48.848Z,0.40
2022-11-18T07:06:21.303Z,0.39
2022-11-18T07:08:52.518Z,0.36
2022-11-18T07:11:24.780Z,0.36
2022-11-18T07:13:55.902Z,0.36
2022-11-18T07:16:27.563Z,0.37
2022-11-18T07:18:58.710Z,0.39
2022-11-18T07:21:30.764Z,0.36
2022-11-18T07:24:01.408Z,0.37
2022-11-18T07:26:32.075Z,0.40
2022-11-18T07:29:02.999Z,0.34
2022-11-18T07:31:35.200Z,0.32
2022-11-18T07:34:06.119Z,0.33
2022-11-18T07:36:36.838Z,0.30
2022-11-18T07:39:09.036Z,0.26
2022-11-18T07:41:41.961Z,0.25
2022-11-18T07:44:17.360Z,0.17
2022-11-18T07:46:48.668Z,0.21
2022-11-18T07:49:19.747Z,0.26
2022-11-18T07:51:50.543Z,0.27
2022-11-18T07:54:21.419Z,0.33
2022-11-18T07:56:52.010Z,0.39
2022-11-18T07:59:22.640Z,0.44
2022-11-18T08:01:53.375Z,0.46
2022-11-18T08:04:24.572Z,0.44
2022-11-18T08:06:55.192Z,0.44
2022-11-18T08:09:25.877Z,0.40
2022-11-18T08:11:56.474Z,0.45
2022-11-18T08:14:28.718Z,0.42
2022-11-18T08:16:59.469Z,0.41
2022-11-18T08:19:30.103Z,0.44
2022-11-18T08:22:00.934Z,0.45
2022-11-18T08:24:31.559Z,0.48
2022-11-18T08:27:02.118Z,0.48
2022-11-18T08:29:32.719Z,0.52
2022-11-18T08:32:03.453Z,0.62
2022-11-18T08:34:34.355Z,0.61
2022-11-18T08:37:04.975Z,0.61
2022-11-18T08:39:35.603Z,0.60
2022-11-18T08:42:06.279Z,0.59
2022-11-18T08:44:37.109Z,0.56
2022-11-18T08:47:07.841Z,0.59
2022-11-18T08:49:38.460Z,0.64
2022-11-18T08:52:09.526Z,0.71
2022-11-18T08:54:40.471Z,0.80
2022-11-18T08:57:11.143Z,0.76
2022-11-18T08:59:41.797Z,0.59
2022-11-18T09:02:17.983Z,0.61
2022-11-18T09:04:49.189Z,0.61
2022-11-18T09:07:20.623Z,0.53
2022-11-18T09:09:51.498Z,0.55
2022-11-18T09:12:22.108Z,0.61
2022-11-18T09:15:12.957Z,0.67
2022-11-18T09:17:43.347Z,0.76
2022-11-18T09:20:14.186Z,0.82
2022-11-18T09:22:44.889Z,0.77
2022-11-18T09:25:15.792Z,0.79
2022-11-18T09:27:47.744Z,0.82
2022-11-18T09:30:19.045Z,0.80
2022-11-18T09:32:50.442Z,0.77
2022-11-18T09:35:21.032Z,0.77
2022-11-18T09:37:51.638Z,0.80
2022-11-18T09:40:22.665Z,0.79
2022-11-18T09:43:04.121Z,0.79
2022-11-18T09:45:39.418Z,0.87
2022-11-18T09:48:20.596Z,0.91
2022-11-18T09:50:51.409Z,0.83
2022-11-18T09:53:23.707Z,0.75
2022-11-18T09:55:55.750Z,0.77
2022-11-18T09:58:32.443Z,0.80
2022-11-18T10:01:03.642Z,0.77
2022-11-18T10:03:35.616Z,0.82
2022-11-18T10:06:23.374Z,0.82
2022-11-18T10:09:06.305Z,0.87
2022-11-18T10:11:47.585Z,0.98
2022-11-18T10:14:34.612Z,1.03
2022-11-18T10:17:11.781Z,0.96
2022-11-18T10:19:51.697Z,0.99
2022-11-18T10:22:28.063Z,1.05
2022-11-18T10:25:12.866Z,1.16
2022-11-18T10:27:45.173Z,1.18
2022-11-18T10:30:18.727Z,1.16
2022-11-18T10:33:02.975Z,1.21
2022-11-18T10:35:35.885Z,1.17
2022-11-18T10:38:17.940Z,1.09
2022-11-18T10:41:00.701Z,1.09
2022-11-18T10:43:49.921Z,1.08
2022-11-18T10:46:27.154Z,1.06
2022-11-18T10:49:16.521Z,1.06
2022-11-18T10:51:49.469Z,1.11
2022-11-18T10:54:22.319Z,1.23
2022-11-18T10:56:58.483Z,1.14
2022-11-18T10:59:34.468Z,1.04
2022-11-18T11:02:17.051Z,1.04
2022-11-18T11:04:48.951Z,1.12
2022-11-18T11:07:27.777Z,1.13
2022-11-18T11:10:23.675Z,1.11
2022-11-18T11:12:58.417Z,0.90
2022-11-18T11:15:34.545Z,0.83
2022-11-18T11:18:29.326Z,0.78
2022-11-18T11:21:00.017Z,0.76
2022-11-18T11:23:37.484Z,0.85
2022-11-18T11:29:21.323Z,1.05
2022-11-18T11:32:02.805Z,1.04
2022-11-18T11:34:42.822Z,1.13
2022-11-18T11:37:22.522Z,1.19
2022-11-18T11:40:03.744Z,1.31
2022-11-18T11:42:44.732Z,1.40
2022-11-18T11:45:25.529Z,1.45
2022-11-18T11:48:15.194Z,1.45
2022-11-18T11:51:01.873Z,1.33
2022-11-18T11:54:03.828Z,1.37
2022-11-18T11:56:39.338Z,1.37
2022-11-18T11:59:19.390Z,1.30
2022-11-18T12:02:05.436Z,1.30
2022-11-18T12:04:44.909Z,1.32
2022-11-18T12:07:20.679Z,1.25
2022-11-18T12:10:15.921Z,1.25
2022-11-18T12:12:55.534Z,1.22
2022-11-18T12:15:45.088Z,1.17
2022-11-18T12:18:23.442Z,1.17
2022-11-18T12:20:55.123Z,1.19
2022-11-18T12:23:27.567Z,1.22
2022-11-18T12:26:07.520Z,1.24
2022-11-18T12:28:43.746Z,1.24
2022-11-18T12:31:35.537Z,1.17
2022-11-18T12:34:19.785Z,1.13
2022-11-18T12:36:50.419Z,1.16
2022-11-18T12:39:50.601Z,1.18
2022-11-18T12:42:59.793Z,1.19
2022-11-18T12:45:54.061Z,1.20
2022-11-18T12:48:33.565Z,1.22
2022-11-18T12:51:11.873Z,1.17
2022-11-18T12:53:45.088Z,1.09
2022-11-18T12:56:25.782Z,1.10
2022-11-18T12:58:57.977Z,1.15
2022-11-18T13:01:30.734Z,1.17
2022-11-18T13:04:13.227Z,1.20
2022-11-18T13:06:45.809Z,1.17
2022-11-18T13:09:20.175Z,1.16
2022-11-18T13:11:56.726Z,1.16
2022-11-18T13:14:48.519Z,1.15
2022-11-18T13:17:48.087Z,1.13
2022-11-18T13:20:31.102Z,1.11
2022-11-18T13:23:21.511Z,1.05
2022-11-18T13:25:52.974Z,1.01
2022-11-18T13:28:33.308Z,1.00
2022-11-18T13:31:08.777Z,0.99
2022-11-18T13:33:40.648Z,0.98
2022-11-18T13:36:19.417Z,0.97
2022-11-18T13:39:00.142Z,0.98
2022-11-18T13:41:33.700Z,0.98
2022-11-18T13:44:22.927Z,1.02
2022-11-18T13:46:57.302Z,1.05
2022-11-18T13:49:39.015Z,1.05
2022-11-18T13:52:14.935Z,1.04
2022-11-18T13:54:46.659Z,1.03
2022-11-18T13:57:22.982Z,0.97
2022-11-18T13:59:55.605Z,0.98
2022-11-18T14:02:26.266Z,0.97
2022-11-18T14:04:59.816Z,1.00
2022-11-18T14:07:34.446Z,1.00
2022-11-18T14:10:07.943Z,1.01
2022-11-18T14:12:56.819Z,1.00
2022-11-18T14:15:43.331Z,0.99
2022-11-18T14:18:22.442Z,1.03
2022-11-18T14:20:57.114Z,1.04
2022-11-18T14:23:33.718Z,1.01
2022-11-18T14:26:06.959Z,0.97
2022-11-18T14:28:38.660Z,0.93
2022-11-18T14:31:25.138Z,0.85
2022-11-18T14:34:18.297Z,0.81
2022-11-18T14:36:50.635Z,0.76
2022-11-18T14:39:31.446Z,0.74
2022-11-18T14:42:02.470Z,0.74
2022-11-18T14:44:33.413Z,0.74
2022-11-18T14:47:07.832Z,0.73
2022-11-18T14:49:38.665Z,0.74
2022-11-18T14:52:11.458Z,0.68
2022-11-18T14:54:42.079Z,0.65
2022-11-18T14:57:19.004Z,0.60
2022-11-18T14:59:49.830Z,0.55
2022-11-18T15:02:21.001Z,0.56
2022-11-18T15:04:52.680Z,0.53
2022-11-18T15:07:24.197Z,0.52
2022-11-18T15:09:55.076Z,0.51
2022-11-18T15:12:26.208Z,0.49
2022-11-18T15:14:56.929Z,0.57
2022-11-18T15:17:27.661Z,0.58
2022-11-18T15:19:58.713Z,0.61
2022-11-18T15:22:29.306Z,0.64
2022-11-18T15:24:59.964Z,0.61
2022-11-18T15:27:30.626Z,0.55
2022-11-18T15:30:03.529Z,0.56
2022-11-18T15:32:34.165Z,0.54
2022-11-18T15:35:04.795Z,0.57
2022-11-18T15:37:35.387Z,0.61
2022-11-18T15:40:06.562Z,0.58
2022-11-18T15:42:45.245Z,0.53
2022-11-18T15:45:21.197Z,0.48
2022-11-18T15:47:53.986Z,0.43
2022-11-18T15:50:25.275Z,0.39
2022-11-18T15:52:56.131Z,0.33
2022-11-18T15:55:27.946Z,0.29
2022-11-18T15:57:58.596Z,0.26
2022-11-18T16:00:30.247Z,0.22
2022-11-18T16:03:01.861Z,0.15
2022-11-18T16:05:32.490Z,0.08
2022-11-18T16:08:03.171Z,-0.02
2022-11-18T16:10:51.490Z,-0.02
2022-11-18T16:13:24.478Z,-0.08
2022-11-18T16:15:55.108Z,-0.12
2022-11-18T16:18:25.794Z,-0.10
2022-11-18T16:21:01.561Z,-0.07
2022-11-18T16:23:32.168Z,-0.05
2022-11-18T16:26:03.016Z,-0.07
2022-11-18T16:28:33.754Z,-0.10
2022-11-18T16:31:22.027Z,-0.05
2022-11-18T16:33:52.669Z,-0.07
2022-11-18T16:36:28.983Z,-0.12
2022-11-18T16:39:04.013Z,-0.20
2022-11-18T16:41:34.679Z,-0.23
2022-11-18T16:44:07.148Z,-0.25
2022-11-18T16:46:39.433Z,-0.35
2022-11-18T16:49:12.612Z,-0.42
2022-11-18T16:51:45.221Z,-0.47
2022-11-18T16:54:19.917Z,-0.52
2022-11-18T16:56:50.759Z,-0.51
2022-11-18T16:59:23.183Z,-0.46
2022-11-18T17:01:55.630Z,-0.39
2022-11-18T17:04:26.858Z,-0.38
2022-11-18T17:06:59.788Z,-0.42
2022-11-18T17:09:30.653Z,-0.39
2022-11-18T17:12:03.289Z,-0.39
2022-11-18T17:14:34.055Z,-0.38
2022-11-18T17:17:05.315Z,-0.48
2022-11-18T17:19:36.581Z,-0.52
2022-11-18T17:22:07.222Z,-0.51
2022-11-18T17:24:38.324Z,-0.48
2022-11-18T17:27:08.929Z,-0.46
2022-11-18T17:29:39.530Z,-0.44
2022-11-18T17:32:11.135Z,-0.43
2022-11-18T17:34:41.787Z,-0.45
2022-11-18T17:37:12.414Z,-0.43
2022-11-18T17:39:43.054Z,-0.48
2022-11-18T17:42:17.872Z,-0.49
2022-11-18T17:44:48.541Z,-0.51
2022-11-18T17:47:19.241Z,-0.57
2022-11-18T17:49:51.329Z,-0.64
2022-11-18T17:52:21.982Z,-0.77
2022-11-18T17:54:52.582Z,-0.81
2022-11-18T17:57:25.572Z,-0.78
2022-11-18T17:59:56.294Z,-0.71
2022-11-18T18:02:26.917Z,-0.69
2022-11-18T18:04:58.091Z,-0.65
2022-11-18T18:07:30.609Z,-0.62
2022-11-18T18:10:01.233Z,-0.67
2022-11-18T18:12:49.370Z,-0.64
2022-11-18T18:15:20.438Z,-0.67
2022-11-18T18:17:51.063Z,-0.73
2022-11-18T18:20:22.499Z,-0.71
2022-11-18T18:26:46.834Z,-0.73
2022-11-18T18:29:17.510Z,-0.73
2022-11-18T18:31:48.469Z,-0.65
2022-11-18T18:34:19.403Z,-0.61
2022-11-18T18:36:50.240Z,-0.63
2022-11-18T18:39:21.041Z,-0.62
2022-11-18T18:41:51.695Z,-0.62
2022-11-18T18:44:22.426Z,-0.56
2022-11-18T18:46:55.834Z,-0.54
2022-11-18T18:49:26.449Z,-0.59
2022-11-18T18:51:57.048Z,-0.58
2022-11-18T18:54:29.056Z,-0.65
2022-11-18T18:57:00.533Z,-0.72
2022-11-18T18:59:32.781Z,-0.68
2022-11-18T19:02:03.637Z,-0.60
2022-11-18T19:04:34.431Z,-0.54
2022-11-18T19:07:05.104Z,-0.53
2022-11-18T19:09:38.421Z,-0.49
2022-11-18T19:12:27.225Z,-0.55
2022-11-18T19:14:57.876Z,-0.60
2022-11-18T19:17:28.565Z,-0.61
2022-11-18T19:20:16.743Z,-0.57
2022-11-18T19:22:47.368Z,-0.58
2022-11-18T19:25:18.636Z,-0.64
2022-11-18T19:27:49.299Z,-0.62
2022-11-18T19:30:20.466Z,-0.59
2022-11-18T19:32:51.959Z,-0.56
2022-11-18T19:35:22.847Z,-0.57
2022-11-18T19:37:53.770Z,-0.55
2022-11-18T19:40:24.385Z,-0.51
2022-11-18T19:42:55.779Z,-0.42
2022-11-18T19:45:26.489Z,-0.47
2022-11-18T19:48:01.722Z,-0.56
2022-11-18T19:50:32.411Z,-0.59
2022-11-18T19:53:23.067Z,-0.63
2022-11-18T19:55:57.961Z,-0.61
2022-11-18T19:58:29.088Z,-0.64
2022-11-18T20:00:59.834Z,-0.61
2022-11-18T20:03:31.929Z,-0.63
2022-11-18T20:06:05.339Z,-0.61
2022-11-18T20:08:37.485Z,-0.67
2022-11-18T20:11:10.508Z,-0.72
2022-11-18T20:13:42.480Z,-0.68
2022-11-18T20:16:16.679Z,-0.63
2022-11-18T20:18:48.874Z,-0.61
2022-11-18T20:21:20.979Z,-0.67
2022-11-18T20:23:53.138Z,-0.65
2022-11-18T20:26:25.524Z,-0.73
2022-11-18T20:28:57.895Z,-0.64
2022-11-18T20:31:29.553Z,-0.62
2022-11-18T20:34:00.917Z,-0.64
2022-11-18T20:36:34.056Z,-0.78
2022-11-18T20:39:07.245Z,-0.88
2022-11-18T20:41:38.286Z,-0.89
2022-11-18T20:44:09.553Z,-0.98
2022-11-18T20:46:40.244Z,-0.94
2022-11-18T20:49:11.038Z,-0.85
2022-11-18T20:51:41.707Z,-0.75
2022-11-18T20:54:13.106Z,-0.66
2022-11-18T20:56:43.752Z,-0.62
2022-11-18T20:59:14.496Z,-0.63
2022-11-18T21:01:45.184Z,-0.66
2022-11-18T21:04:15.888Z,-0.64
2022-11-18T21:06:47.425Z,-0.60
2022-11-18T21:09:18.408Z,-0.58
2022-11-18T21:11:49.343Z,-0.61
2022-11-18T21:14:24.471Z,-0.60
2022-11-18T21:16:58.116Z,-0.57
2022-11-18T21:19:29.772Z,-0.49
2022-11-18T21:22:00.796Z,-0.49
2022-11-18T21:24:32.861Z,-0.50
2022-11-18T21:27:05.154Z,-0.52
2022-11-18T21:29:36.052Z,-0.58
2022-11-18T21:32:07.110Z,-0.60
2022-11-18T21:34:37.761Z,-0.63
2022-11-18T21:37:08.425Z,-0.60
2022-11-18T21:39:40.025Z,-0.62
2022-11-18T21:42:10.676Z,-0.60
2022-11-18T21:44:41.338Z,-0.55
2022-11-18T21:47:12.351Z,-0.55
2022-11-18T21:49:43.070Z,-0.56
2022-11-18T21:52:13.748Z,-0.64
2022-11-18T21:54:44.410Z,-0.61
2022-11-18T21:57:15.025Z,-0.63
2022-11-18T21:59:48.272Z,-0.68
2022-11-18T22:02:19.000Z,-0.67
2022-11-18T22:04:56.047Z,-0.71
2022-11-18T22:07:27.392Z,-0.69
2022-11-18T22:09:58.094Z,-0.73
2022-11-18T22:12:29.036Z,-0.74
2022-11-18T22:14:59.671Z,-0.80
2022-11-18T22:17:30.291Z,-0.87
2022-11-18T22:20:00.890Z,-0.92
2022-11-18T22:22:31.569Z,-0.93
2022-11-18T22:25:02.335Z,-0.91
2022-11-18T22:27:32.983Z,-0.88
2022-11-18T22:30:03.608Z,-0.83
2022-11-18T22:32:34.267Z,-0.82
2022-11-18T22:35:05.299Z,-0.81
2022-11-18T22:37:35.923Z,-0.86
2022-11-18T22:40:07.981Z,-0.89
2022-11-18T22:42:49.446Z,-0.85
2022-11-18T22:45:20.565Z,-0.83
2022-11-18T22:47:51.211Z,-0.81
2022-11-18T22:50:21.936Z,-0.79
2022-11-18T22:52:53.945Z,-0.83
2022-11-18T22:55:24.571Z,-0.92
2022-11-18T22:57:57.274Z,-1.04
2022-11-18T23:00:27.870Z,-1.12
2022-11-18T23:02:59.012Z,-1.06
2022-11-18T23:05:29.625Z,-0.98
2022-11-18T23:08:00.311Z,-0.91
2022-11-18T23:10:32.720Z,-0.82
2022-11-18T23:13:20.793Z,-0.76
2022-11-18T23:15:51.359Z,-0.74
2022-11-18T23:18:21.952Z,-0.72
2022-11-18T23:20:52.877Z,-0.71
2022-11-18T23:23:23.486Z,-0.69
2022-11-18T23:25:54.263Z,-0.67
2022-11-18T23:28:25.043Z,-0.66
2022-11-18T23:31:03.730Z,-0.72
2022-11-18T23:33:34.677Z,-0.77
2022-11-18T23:36:05.767Z,-0.82
2022-11-18T23:38:36.967Z,-0.82
2022-11-18T23:41:09.556Z,-0.78
2022-11-18T23:43:41.187Z,-0.76
2022-11-18T23:46:12.156Z,-0.76
2022-11-18T23:48:44.367Z,-0.77
2022-11-18T23:51:17.367Z,-0.73
2022-11-18T23:53:52.197Z,-0.71
2022-11-18T23:56:24.763Z,-0.71
2022-11-18T23:58:57.137Z,-0.73
